Hlavní strana
METAR-TAF:

METAR-TAF

Letiště :

Mezinárodní letiště Kchun-ming Čchang-šuej

Kchun-ming, Čína

zeměpisná šířka: 25-01N, zeměpisná délka: 102-41E, výška: 1892 m

Aktuální stav počasí

Zpráva byla vytvořena před 28 minutami, v 23:00 UTC
Jihojihozápadní vítr 8 kt
Teplota 8°C
Vlhkost vzduchu 93%
Tlak 1027 hPa
Viditelnost: 4400 m
Skoro jasno ve výšce 1600 ft
Zataženo ve výšce 3600 ft
kouřmo

METAR: ZPPP 132300Z 21004MPS 4400 BR FEW016 OVC036 08/07 Q1027 NOSIG

Čas: 07:28 (23:28 UTC)

Předpověď počasí

Zpráva byla vytvořena před 10 hodinami a 23 minutami, v 13:05 UTC
Předpověď platná od 13 v 18 UTC do 14 v 18 UTC
Jihozápadní vítr 12 kt
Viditelnost 10 km a více
Polojasno ve výšce 3300 ft

TAF: ZPPP 131305Z 1318/1418 22006MPS 9999 SCT033 TX16/1408Z TN04/1323Z

Stav a předpovědi počasí z více než 4 000 letišť (zprávy METAR a TAF).

Červené a žluté tečky na mapě představují dostupné meteorologické stanice.

Když kurzor umístíte na tečku, zobrazí se název stanice.

Pak kliknutím zobrazíte stav a předpověď počasí.

Chcete-li změnit mapu, kliknutím na zelené tlačítko se znaménkem +mapu přiblížíte, kliknutím na zelené tlačítko se znaménkem – mapu oddálíte a kliknutím na zelené šipky přejdete na sousední mapy.


METAR-TAF: